createdAt,value
2019-05-29T00:00:42.540Z,8.13
2019-05-29T00:02:46.294Z,8.00
2019-05-29T00:04:49.998Z,8.20
2019-05-29T00:06:53.755Z,8.78
2019-05-29T00:08:57.469Z,8.80
2019-05-29T00:11:01.180Z,8.98
2019-05-29T00:13:06.101Z,7.75
2019-05-29T00:15:10.439Z,8.90
2019-05-29T00:17:14.664Z,8.40
2019-05-29T00:19:18.751Z,9.20
2019-05-29T00:21:22.545Z,8.95
2019-05-29T00:23:26.262Z,8.53
2019-05-29T00:25:30.006Z,9.70
2019-05-29T00:27:33.713Z,8.53
2019-05-29T00:29:37.441Z,8.93
2019-05-29T00:31:41.181Z,8.60
2019-05-29T00:33:44.965Z,9.30
2019-05-29T00:35:48.708Z,9.63
2019-05-29T00:37:52.492Z,9.70
2019-05-29T00:39:56.297Z,9.73
2019-05-29T00:42:00.013Z,9.58
2019-05-29T00:44:03.802Z,10.15
2019-05-29T00:46:07.514Z,9.65
2019-05-29T00:48:11.666Z,9.90
2019-05-29T00:50:16.120Z,9.73
2019-05-29T00:52:19.940Z,10.80
2019-05-29T00:54:23.656Z,9.93
2019-05-29T00:56:27.406Z,9.75
2019-05-29T00:58:31.127Z,10.00
2019-05-29T01:00:34.830Z,10.63
2019-05-29T01:02:38.581Z,9.80
2019-05-29T01:04:42.365Z,10.60
2019-05-29T01:06:46.466Z,10.00
2019-05-29T01:08:50.372Z,10.32
2019-05-29T01:10:54.164Z,10.15
2019-05-29T01:12:57.902Z,10.70
2019-05-29T01:15:01.617Z,10.72
2019-05-29T01:17:05.478Z,11.33
2019-05-29T01:19:27.432Z,10.72
2019-05-29T01:21:31.157Z,11.05
2019-05-29T01:23:34.961Z,10.25
2019-05-29T01:25:38.683Z,10.68
2019-05-29T01:27:42.432Z,11.00
2019-05-29T01:29:46.158Z,10.25
2019-05-29T01:31:49.869Z,11.33
2019-05-29T01:33:53.700Z,10.35
2019-05-29T01:35:57.412Z,10.10
2019-05-29T01:38:01.231Z,11.03
2019-05-29T01:40:19.187Z,10.85
2019-05-29T01:42:11.394Z,12.07
2019-05-29T01:44:15.374Z,11.48
2019-05-29T01:46:19.512Z,11.63
2019-05-29T01:48:23.680Z,11.03
2019-05-29T01:50:27.914Z,11.30
2019-05-29T01:52:31.711Z,12.98
2019-05-29T01:54:35.421Z,10.93
2019-05-29T01:56:39.357Z,11.43
2019-05-29T01:58:43.111Z,11.28
2019-05-29T02:00:47.727Z,11.75
2019-05-29T02:02:51.444Z,11.12
2019-05-29T02:04:55.148Z,11.50
2019-05-29T02:06:58.905Z,11.05
2019-05-29T02:09:02.617Z,12.60
2019-05-29T02:11:06.572Z,12.37
2019-05-29T02:13:10.341Z,11.30
2019-05-29T02:15:23.781Z,11.97
2019-05-29T02:17:20.202Z,11.73
2019-05-29T02:19:24.044Z,11.85
2019-05-29T02:21:28.477Z,11.48
2019-05-29T02:23:32.379Z,11.03
2019-05-29T02:25:36.094Z,11.03
2019-05-29T02:27:39.899Z,10.88
2019-05-29T02:29:43.616Z,10.65
2019-05-29T02:31:47.356Z,10.82
2019-05-29T02:33:51.069Z,10.93
2019-05-29T02:35:54.789Z,10.88
2019-05-29T02:37:58.530Z,10.90
2019-05-29T02:40:02.348Z,11.45
2019-05-29T02:42:06.162Z,11.75
2019-05-29T02:44:09.977Z,10.80
2019-05-29T02:46:13.807Z,10.03
2019-05-29T02:48:17.529Z,9.00
2019-05-29T02:50:22.180Z,9.50
2019-05-29T02:52:26.461Z,9.08
2019-05-29T02:54:32.248Z,8.63
2019-05-29T02:56:36.186Z,9.13
2019-05-29T02:58:40.031Z,9.70
2019-05-29T03:00:55.490Z,8.48
2019-05-29T03:02:59.204Z,8.38
2019-05-29T03:05:03.215Z,9.10
2019-05-29T03:07:07.199Z,7.80
2019-05-29T03:09:10.917Z,7.75
2019-05-29T03:11:14.618Z,7.20
2019-05-29T03:13:19.164Z,7.05
2019-05-29T03:15:23.546Z,5.67
2019-05-29T03:17:27.954Z,5.85
2019-05-29T03:19:34.738Z,5.10
2019-05-29T03:21:38.541Z,4.78
2019-05-29T03:23:42.285Z,4.78
2019-05-29T03:25:46.010Z,4.72
2019-05-29T03:27:49.806Z,4.45
2019-05-29T03:29:53.563Z,4.50
2019-05-29T03:31:57.306Z,4.22
2019-05-29T03:34:01.059Z,4.90
2019-05-29T03:36:04.944Z,4.67
2019-05-29T03:38:08.656Z,4.85
2019-05-29T03:40:12.448Z,5.25
2019-05-29T03:42:16.273Z,5.83
2019-05-29T03:44:20.058Z,5.00
2019-05-29T03:46:32.731Z,5.87
2019-05-29T03:48:29.829Z,4.92
2019-05-29T03:50:34.887Z,5.42
2019-05-29T03:52:39.127Z,5.50
2019-05-29T03:54:42.971Z,5.90
2019-05-29T03:56:46.668Z,5.35
2019-05-29T03:58:50.413Z,6.15
2019-05-29T04:00:54.217Z,5.08
2019-05-29T04:02:57.863Z,4.37
2019-05-29T04:05:01.630Z,4.12
2019-05-29T04:07:05.419Z,4.90
2019-05-29T04:09:09.127Z,4.03
2019-05-29T04:11:12.864Z,4.00
2019-05-29T04:13:16.699Z,3.60
2019-05-29T04:15:20.412Z,3.75
2019-05-29T04:17:27.292Z,3.40
2019-05-29T04:19:32.632Z,3.87
2019-05-29T04:21:38.610Z,3.20
2019-05-29T04:23:47.178Z,3.33
2019-05-29T04:25:53.782Z,3.42
2019-05-29T04:27:59.666Z,3.92
2019-05-29T04:30:04.493Z,3.52
2019-05-29T04:32:08.195Z,3.08
2019-05-29T04:34:11.922Z,3.83
2019-05-29T04:36:15.647Z,3.15
2019-05-29T04:38:19.493Z,3.15
2019-05-29T04:40:23.206Z,3.72
2019-05-29T04:42:28.876Z,3.05
2019-05-29T04:44:33.304Z,3.20
2019-05-29T04:46:38.458Z,3.30
2019-05-29T04:48:42.906Z,2.70
2019-05-29T04:50:46.641Z,2.40
2019-05-29T04:52:52.624Z,2.83
2019-05-29T04:54:56.382Z,2.60
2019-05-29T04:57:00.144Z,2.60
2019-05-29T04:59:03.872Z,2.92
2019-05-29T05:01:07.577Z,2.47
2019-05-29T05:03:11.395Z,2.40
2019-05-29T05:05:15.300Z,2.67
2019-05-29T05:07:19.008Z,2.30
2019-05-29T05:09:22.734Z,1.95
2019-05-29T05:11:26.468Z,2.70
2019-05-29T05:13:31.368Z,2.60
2019-05-29T05:15:36.133Z,2.87
2019-05-29T05:17:40.180Z,2.27
2019-05-29T05:19:44.043Z,2.50
2019-05-29T05:21:47.843Z,2.12
2019-05-29T05:23:51.645Z,2.05
2019-05-29T05:25:55.402Z,2.52
2019-05-29T05:27:59.100Z,2.40
2019-05-29T05:30:02.846Z,2.25
2019-05-29T05:32:06.573Z,2.22
2019-05-29T05:34:10.303Z,2.50
2019-05-29T05:36:14.048Z,2.80
2019-05-29T05:38:17.737Z,2.40
2019-05-29T05:40:21.449Z,2.10
2019-05-29T05:42:25.176Z,2.47
2019-05-29T05:44:28.890Z,2.20
2019-05-29T05:46:32.930Z,2.45
2019-05-29T05:48:37.143Z,2.30
2019-05-29T05:50:41.466Z,1.80
2019-05-29T05:52:45.493Z,2.30
2019-05-29T05:54:49.281Z,2.02
2019-05-29T05:56:53.786Z,2.67
2019-05-29T05:58:57.677Z,2.83
2019-05-29T06:01:01.457Z,2.50
2019-05-29T06:03:05.681Z,2.52
2019-05-29T06:05:09.380Z,2.30
2019-05-29T06:07:13.093Z,2.80
2019-05-29T06:09:16.849Z,3.42
2019-05-29T06:11:20.624Z,2.67
2019-05-29T06:13:24.348Z,3.17
2019-05-29T06:15:28.056Z,2.60
2019-05-29T06:17:32.345Z,2.50
2019-05-29T06:19:36.724Z,2.65
2019-05-29T06:21:40.919Z,2.52
2019-05-29T06:23:44.738Z,2.90
2019-05-29T06:25:48.490Z,2.27
2019-05-29T06:27:52.222Z,2.77
2019-05-29T06:29:55.934Z,2.40
2019-05-29T06:31:59.745Z,2.50
2019-05-29T06:34:03.468Z,2.37
2019-05-29T06:36:07.180Z,2.30
2019-05-29T06:38:10.913Z,2.40
2019-05-29T06:40:17.795Z,4.00
2019-05-29T06:42:21.563Z,2.50
2019-05-29T06:44:25.381Z,2.42
2019-05-29T06:46:29.246Z,2.20
2019-05-29T06:48:52.063Z,2.00
2019-05-29T06:50:39.426Z,2.40
2019-05-29T06:52:43.586Z,2.17
2019-05-29T06:54:48.198Z,2.15
2019-05-29T06:56:52.048Z,2.20
2019-05-29T06:58:55.765Z,2.85
2019-05-29T07:00:59.546Z,2.42
2019-05-29T07:03:03.253Z,2.27
2019-05-29T07:08:37.010Z,2.08
2019-05-29T07:10:24.547Z,2.40
2019-05-29T07:12:28.292Z,3.08
2019-05-29T07:14:31.998Z,2.17
2019-05-29T07:16:49.056Z,2.47
2019-05-29T07:19:08.428Z,2.52
2019-05-29T07:20:46.946Z,2.62
2019-05-29T07:22:50.794Z,2.17
2019-05-29T07:24:54.537Z,2.77
2019-05-29T07:26:58.285Z,2.15
2019-05-29T07:29:08.261Z,2.10
2019-05-29T07:31:07.421Z,2.00
2019-05-29T07:33:11.199Z,1.98
2019-05-29T07:35:14.994Z,2.08
2019-05-29T07:37:18.691Z,2.10
2019-05-29T07:39:22.510Z,2.12
2019-05-29T07:41:26.228Z,2.22
2019-05-29T07:43:29.928Z,1.90
2019-05-29T07:45:33.665Z,2.40
2019-05-29T07:47:38.249Z,1.95
2019-05-29T07:49:44.798Z,2.27
2019-05-29T07:51:48.773Z,2.22
2019-05-29T07:53:52.664Z,2.00
2019-05-29T07:55:56.429Z,2.22
2019-05-29T07:58:00.163Z,2.00
2019-05-29T08:00:06.423Z,2.10
2019-05-29T08:02:10.194Z,1.98
2019-05-29T08:04:13.893Z,2.15
2019-05-29T08:06:17.613Z,2.02
2019-05-29T08:08:21.352Z,2.30
2019-05-29T08:10:25.056Z,1.80
2019-05-29T08:12:28.873Z,1.92
2019-05-29T08:14:32.601Z,2.90
2019-05-29T08:16:36.358Z,2.15
2019-05-29T08:18:41.680Z,2.33
2019-05-29T08:20:46.004Z,1.92
2019-05-29T08:22:50.545Z,1.80
2019-05-29T08:24:54.709Z,1.90
2019-05-29T08:26:58.437Z,2.00
2019-05-29T08:31:47.488Z,1.90
2019-05-29T08:33:51.545Z,1.95
2019-05-29T08:35:59.854Z,1.90
2019-05-29T08:38:00.613Z,1.98
2019-05-29T08:40:07.252Z,1.75
2019-05-29T08:42:22.418Z,2.08
2019-05-29T08:44:16.414Z,2.33
2019-05-29T08:46:20.139Z,2.45
2019-05-29T08:48:23.941Z,2.00
2019-05-29T08:50:27.742Z,1.98
2019-05-29T08:52:31.469Z,2.17
2019-05-29T08:54:35.174Z,2.00
2019-05-29T08:56:38.918Z,1.47
2019-05-29T08:58:42.946Z,1.70
2019-05-29T09:00:50.546Z,1.65
2019-05-29T09:02:52.829Z,1.90
2019-05-29T09:04:56.684Z,1.57
2019-05-29T09:07:00.399Z,1.65
2019-05-29T09:09:06.302Z,1.62
2019-05-29T09:11:10.072Z,1.62
2019-05-29T09:13:13.790Z,1.75
2019-05-29T09:15:21.242Z,2.50
2019-05-29T09:17:24.225Z,1.92
2019-05-29T09:19:28.051Z,2.08
2019-05-29T09:21:31.852Z,2.08
2019-05-29T09:23:35.675Z,1.80
2019-05-29T09:25:39.417Z,2.00
2019-05-29T09:27:43.114Z,1.90
2019-05-29T09:29:46.869Z,1.77
2019-05-29T09:31:50.622Z,1.77
2019-05-29T09:33:54.324Z,1.50
2019-05-29T09:35:58.112Z,1.90
2019-05-29T09:38:01.846Z,1.90
2019-05-29T09:40:17.116Z,1.70
2019-05-29T09:42:22.442Z,1.90
2019-05-29T09:44:38.026Z,2.08
2019-05-29T09:46:31.670Z,2.10
2019-05-29T09:48:48.767Z,2.37
2019-05-29T09:50:50.129Z,2.52
2019-05-29T09:52:46.132Z,2.08
2019-05-29T09:54:49.842Z,2.33
2019-05-29T09:56:54.887Z,1.98
2019-05-29T09:59:00.450Z,2.30
2019-05-29T10:01:19.499Z,2.58
2019-05-29T10:03:09.657Z,1.80
2019-05-29T10:05:13.785Z,1.75
2019-05-29T10:07:17.488Z,2.10
2019-05-29T10:09:21.319Z,2.00
2019-05-29T10:11:25.057Z,2.20
2019-05-29T10:13:28.774Z,1.90
2019-05-29T10:15:32.470Z,1.70
2019-05-29T10:17:36.239Z,1.92
2019-05-29T10:19:39.978Z,2.00
2019-05-29T10:21:43.703Z,1.80
2019-05-29T10:23:47.405Z,1.77
2019-05-29T10:25:51.127Z,1.98
2019-05-29T10:27:54.875Z,2.10
2019-05-29T10:29:58.582Z,1.80
2019-05-29T10:32:02.301Z,1.75
2019-05-29T10:34:06.107Z,1.82
2019-05-29T10:36:09.907Z,1.70
2019-05-29T10:38:13.645Z,1.70
2019-05-29T10:40:17.602Z,2.40
2019-05-29T10:42:21.353Z,2.37
2019-05-29T10:44:25.014Z,1.80
2019-05-29T10:46:28.825Z,2.10
2019-05-29T10:48:32.748Z,1.77
2019-05-29T10:50:36.577Z,1.57
2019-05-29T10:52:40.323Z,1.80
2019-05-29T10:54:44.152Z,2.08
2019-05-29T10:56:48.782Z,2.10
2019-05-29T10:58:58.094Z,2.80
2019-05-29T11:00:58.125Z,2.30
2019-05-29T11:03:01.834Z,2.10
2019-05-29T11:05:07.030Z,1.45
2019-05-29T11:07:10.731Z,1.85
2019-05-29T11:09:14.430Z,2.20
2019-05-29T11:11:18.345Z,1.80
2019-05-29T11:13:22.005Z,2.33
2019-05-29T11:15:25.737Z,1.87
2019-05-29T11:17:29.513Z,1.90
2019-05-29T11:19:33.221Z,1.90
2019-05-29T11:21:36.971Z,1.65
2019-05-29T11:23:40.732Z,1.62
2019-05-29T11:25:44.437Z,1.50
2019-05-29T11:27:48.520Z,1.42
2019-05-29T11:29:53.307Z,1.77
2019-05-29T11:31:58.870Z,1.40
2019-05-29T11:34:02.684Z,1.90
2019-05-29T11:36:12.255Z,1.32
2019-05-29T11:38:11.907Z,1.50
2019-05-29T11:40:15.727Z,1.50
2019-05-29T11:42:27.247Z,1.55
2019-05-29T11:44:25.021Z,1.60
2019-05-29T11:46:28.859Z,1.55
2019-05-29T11:48:32.578Z,1.60
2019-05-29T11:50:36.273Z,1.60
2019-05-29T11:52:42.866Z,1.50
2019-05-29T11:54:45.777Z,1.52
2019-05-29T11:56:51.815Z,1.55
2019-05-29T11:58:55.426Z,1.30
2019-05-29T12:00:59.287Z,1.30
2019-05-29T12:03:02.985Z,1.57
2019-05-29T12:05:10.977Z,1.50
2019-05-29T12:07:14.685Z,1.30
2019-05-29T12:09:31.907Z,1.65
2019-05-29T12:11:23.822Z,1.35
2019-05-29T12:13:27.659Z,1.40
2019-05-29T12:15:31.354Z,1.80
2019-05-29T12:17:35.311Z,1.50
2019-05-29T12:19:39.375Z,1.30
2019-05-29T12:21:43.387Z,1.52
2019-05-29T12:23:47.117Z,1.52
2019-05-29T12:26:11.609Z,1.50
2019-05-29T12:27:57.339Z,1.80
2019-05-29T12:30:01.264Z,1.52
2019-05-29T12:32:09.579Z,1.15
2019-05-29T12:34:18.759Z,1.57
2019-05-29T12:36:15.926Z,1.30
2019-05-29T12:38:19.697Z,1.37
2019-05-29T12:40:23.533Z,1.30
2019-05-29T12:42:27.259Z,1.40
2019-05-29T12:44:30.963Z,1.40
2019-05-29T12:46:34.731Z,1.50
2019-05-29T12:48:38.413Z,1.60
2019-05-29T12:50:42.246Z,1.67
2019-05-29T12:52:45.939Z,1.57
2019-05-29T12:54:49.643Z,1.50
2019-05-29T12:56:54.051Z,1.75
2019-05-29T12:58:58.331Z,1.95
2019-05-29T13:01:02.966Z,1.30
2019-05-29T13:03:07.232Z,1.50
2019-05-29T13:05:19.235Z,1.22
2019-05-29T13:07:17.831Z,1.60
2019-05-29T13:09:21.654Z,1.50
2019-05-29T13:11:25.371Z,1.17
2019-05-29T13:13:29.123Z,1.50
2019-05-29T13:15:32.854Z,1.37
2019-05-29T13:17:36.541Z,1.95
2019-05-29T13:19:40.276Z,1.35
2019-05-29T13:21:43.973Z,1.45
2019-05-29T13:23:47.687Z,1.45
2019-05-29T13:25:51.396Z,1.42
2019-05-29T13:27:58.976Z,1.95
2019-05-29T13:30:03.458Z,1.70
2019-05-29T13:32:07.391Z,1.87
2019-05-29T13:34:11.370Z,1.60
2019-05-29T13:36:15.075Z,1.50
2019-05-29T13:38:18.795Z,1.45
2019-05-29T13:40:22.973Z,1.80
2019-05-29T13:42:26.679Z,1.50
2019-05-29T13:44:30.509Z,2.00
2019-05-29T13:46:34.217Z,1.98
2019-05-29T13:48:38.034Z,2.10
2019-05-29T13:50:41.790Z,1.47
2019-05-29T13:52:46.162Z,1.60
2019-05-29T13:54:49.922Z,1.30
2019-05-29T13:56:53.755Z,1.45
2019-05-29T13:58:57.847Z,1.42
2019-05-29T14:01:02.484Z,1.60
2019-05-29T14:03:07.152Z,1.42
2019-05-29T14:05:12.879Z,1.52
2019-05-29T14:07:16.588Z,1.47
2019-05-29T14:09:20.360Z,1.17
2019-05-29T14:11:24.082Z,1.17
2019-05-29T14:13:27.793Z,1.20
2019-05-29T14:15:31.517Z,1.10
2019-05-29T14:17:35.236Z,1.45
2019-05-29T14:19:38.952Z,1.12
2019-05-29T14:21:42.767Z,1.27
2019-05-29T14:23:46.539Z,1.62
2019-05-29T14:25:50.238Z,1.52
2019-05-29T14:27:53.953Z,1.50
2019-05-29T14:29:57.702Z,2.02
2019-05-29T14:32:02.878Z,1.62
2019-05-29T14:34:07.510Z,1.40
2019-05-29T14:36:11.518Z,1.62
2019-05-29T14:38:15.407Z,1.37
2019-05-29T14:40:19.122Z,1.60
2019-05-29T14:42:22.988Z,1.87
2019-05-29T14:44:26.775Z,1.52
2019-05-29T14:46:30.664Z,1.20
2019-05-29T14:48:34.435Z,1.27
2019-05-29T14:50:38.252Z,1.60
2019-05-29T14:52:41.956Z,1.50
2019-05-29T14:54:45.721Z,1.45
2019-05-29T14:56:49.523Z,1.25
2019-05-29T14:58:53.342Z,1.37
2019-05-29T15:00:57.154Z,1.75
2019-05-29T15:03:00.865Z,1.55
2019-05-29T15:05:07.680Z,1.72
2019-05-29T15:07:12.085Z,1.67
2019-05-29T15:09:15.846Z,1.65
2019-05-29T15:11:19.638Z,1.37
2019-05-29T15:13:23.381Z,1.50
2019-05-29T15:15:27.112Z,1.35
2019-05-29T15:17:30.857Z,1.80
2019-05-29T15:19:34.565Z,1.62
2019-05-29T15:21:38.298Z,1.32
2019-05-29T15:23:42.085Z,1.60
2019-05-29T15:25:45.785Z,1.22
2019-05-29T15:27:49.526Z,1.40
2019-05-29T15:29:53.306Z,1.50
2019-05-29T15:31:57.108Z,1.27
2019-05-29T15:34:00.803Z,1.80
2019-05-29T15:36:04.640Z,1.40
2019-05-29T15:38:08.652Z,1.32
2019-05-29T15:40:17.154Z,1.10
2019-05-29T15:42:21.087Z,1.40
2019-05-29T15:44:24.814Z,1.62
2019-05-29T15:46:28.527Z,1.45
2019-05-29T15:48:32.265Z,1.40
2019-05-29T15:50:36.012Z,1.52
2019-05-29T15:52:39.748Z,1.90
2019-05-29T15:54:43.450Z,1.30
2019-05-29T15:56:47.151Z,1.70
2019-05-29T15:58:50.886Z,1.52
2019-05-29T16:00:54.665Z,1.10
2019-05-29T16:02:58.570Z,1.70
2019-05-29T16:05:02.430Z,1.20
2019-05-29T16:07:06.301Z,1.20
2019-05-29T16:09:10.270Z,1.45
2019-05-29T16:11:14.661Z,1.40
2019-05-29T16:13:19.059Z,1.32
2019-05-29T16:15:23.073Z,1.67
2019-05-29T16:17:26.797Z,1.77
2019-05-29T16:19:30.612Z,1.62
2019-05-29T16:21:34.316Z,1.50
2019-05-29T16:23:38.029Z,1.32
2019-05-29T16:25:41.784Z,1.60
2019-05-29T16:27:45.486Z,1.57
2019-05-29T16:29:49.362Z,1.67
2019-05-29T16:31:53.167Z,1.92
2019-05-29T16:33:56.885Z,1.95
2019-05-29T16:36:00.614Z,1.60
2019-05-29T16:38:04.321Z,7.20
2019-05-29T16:40:15.927Z,2.12
2019-05-29T16:42:20.484Z,1.40
2019-05-29T16:44:29.194Z,1.70
2019-05-29T16:46:35.812Z,1.47
2019-05-29T16:48:40.458Z,1.70
2019-05-29T16:50:44.205Z,1.37
2019-05-29T16:52:47.901Z,1.70
2019-05-29T16:54:51.665Z,1.55
2019-05-29T16:56:57.264Z,1.67
2019-05-29T16:59:01.002Z,2.00
2019-05-29T17:01:04.807Z,2.05
2019-05-29T17:03:08.546Z,1.90
2019-05-29T17:05:13.640Z,1.98
2019-05-29T17:07:18.104Z,1.75
2019-05-29T17:09:22.345Z,1.90
2019-05-29T17:11:26.140Z,1.40
2019-05-29T17:13:29.842Z,1.60
2019-05-29T17:15:33.818Z,1.50
2019-05-29T17:17:37.555Z,1.80
2019-05-29T17:19:41.367Z,1.57
2019-05-29T17:21:45.195Z,1.40
2019-05-29T17:23:49.026Z,1.40
2019-05-29T17:25:52.784Z,1.47
2019-05-29T17:27:56.562Z,1.35
2019-05-29T17:30:00.305Z,1.70
2019-05-29T17:32:04.014Z,1.60
2019-05-29T17:34:07.741Z,1.75
2019-05-29T17:36:11.534Z,1.60
2019-05-29T17:38:15.245Z,1.55
2019-05-29T17:40:19.207Z,1.50
2019-05-29T17:42:22.966Z,1.95
2019-05-29T17:44:26.734Z,2.12
2019-05-29T17:46:30.509Z,2.00
2019-05-29T17:48:34.350Z,2.30
2019-05-29T17:50:38.076Z,1.92
2019-05-29T17:52:41.873Z,1.70
2019-05-29T17:54:45.505Z,1.98
2019-05-29T17:56:49.457Z,2.60
2019-05-29T17:58:53.287Z,2.62
2019-05-29T18:00:57.059Z,2.22
2019-05-29T18:03:00.762Z,2.30
2019-05-29T18:05:06.014Z,2.08
2019-05-29T18:07:09.699Z,2.45
2019-05-29T18:09:13.520Z,1.70
2019-05-29T18:11:17.324Z,2.40
2019-05-29T18:13:21.396Z,2.70
2019-05-29T18:15:46.151Z,2.52
2019-05-29T18:17:50.004Z,2.08
2019-05-29T18:19:53.786Z,2.05
2019-05-29T18:21:58.093Z,2.17
2019-05-29T18:24:01.815Z,2.30
2019-05-29T18:26:05.569Z,2.30
2019-05-29T18:28:09.373Z,2.17
2019-05-29T18:30:13.681Z,2.27
2019-05-29T18:32:18.539Z,2.02
2019-05-29T18:34:22.825Z,2.27
2019-05-29T18:36:29.680Z,2.77
2019-05-29T18:38:32.770Z,2.30
2019-05-29T18:40:36.686Z,2.20
2019-05-29T18:42:40.415Z,2.20
2019-05-29T18:44:44.193Z,2.67
2019-05-29T18:46:47.898Z,2.50
2019-05-29T18:48:51.677Z,2.90
2019-05-29T18:50:56.969Z,2.58
2019-05-29T18:53:00.776Z,2.77
2019-05-29T18:55:08.860Z,2.42
2019-05-29T18:57:15.519Z,2.72
2019-05-29T18:59:18.030Z,2.40
2019-05-29T19:01:21.778Z,2.85
2019-05-29T19:03:25.495Z,2.60
2019-05-29T19:05:29.709Z,3.52
2019-05-29T19:07:33.571Z,3.10
2019-05-29T19:09:37.293Z,2.65
2019-05-29T19:11:41.033Z,2.90
2019-05-29T19:13:44.758Z,2.85
2019-05-29T19:15:48.530Z,2.70
2019-05-29T19:17:52.301Z,3.20
2019-05-29T19:19:57.130Z,3.30
2019-05-29T19:22:00.915Z,2.87
2019-05-29T19:24:05.083Z,3.30
2019-05-29T19:26:08.876Z,3.30
2019-05-29T19:28:12.683Z,3.17
2019-05-29T19:30:17.015Z,2.90
2019-05-29T19:32:20.895Z,3.27
2019-05-29T19:34:25.206Z,2.60
2019-05-29T19:36:29.857Z,2.90
2019-05-29T19:38:35.418Z,2.85
2019-05-29T19:40:41.883Z,2.52
2019-05-29T19:42:45.607Z,2.72
2019-05-29T19:44:49.322Z,2.90
2019-05-29T19:46:54.265Z,2.95
2019-05-29T19:48:58.102Z,2.70
2019-05-29T19:51:01.915Z,3.10
2019-05-29T19:53:05.822Z,3.05
2019-05-29T19:55:10.080Z,2.58
2019-05-29T19:57:13.841Z,2.85
2019-05-29T19:59:17.558Z,3.67
2019-05-29T20:01:30.527Z,3.47
2019-05-29T20:03:26.810Z,3.60
2019-05-29T20:05:30.719Z,4.03
2019-05-29T20:07:35.270Z,3.58
2019-05-29T20:09:39.072Z,3.55
2019-05-29T20:11:42.877Z,3.33
2019-05-29T20:13:46.662Z,3.45
2019-05-29T20:15:50.527Z,3.87
2019-05-29T20:17:54.314Z,4.25
2019-05-29T20:19:58.125Z,3.55
2019-05-29T20:22:01.980Z,3.47
2019-05-29T20:24:05.710Z,3.05
2019-05-29T20:26:09.416Z,3.30
2019-05-29T20:28:13.164Z,3.22
2019-05-29T20:30:18.805Z,2.98
2019-05-29T20:32:22.534Z,3.35
2019-05-29T20:34:26.260Z,3.12
2019-05-29T20:36:33.241Z,3.15
2019-05-29T20:38:35.365Z,3.60
2019-05-29T20:40:39.426Z,3.08
2019-05-29T20:42:43.374Z,3.05
2019-05-29T20:44:47.156Z,3.27
2019-05-29T20:46:50.805Z,3.20
2019-05-29T20:48:54.606Z,3.00
2019-05-29T20:50:58.344Z,3.47
2019-05-29T20:53:02.057Z,3.55
2019-05-29T20:55:06.424Z,3.30
2019-05-29T20:57:13.125Z,4.12
2019-05-29T20:59:16.922Z,3.83
2019-05-29T21:01:20.568Z,3.70
2019-05-29T21:03:24.302Z,3.92
2019-05-29T21:05:28.049Z,4.53
2019-05-29T21:07:32.522Z,3.70
2019-05-29T21:09:36.903Z,3.70
2019-05-29T21:11:41.770Z,4.15
2019-05-29T21:13:45.657Z,4.45
2019-05-29T21:15:49.483Z,3.87
2019-05-29T21:17:53.140Z,4.00
2019-05-29T21:19:56.913Z,3.85
2019-05-29T21:22:00.684Z,4.30
2019-05-29T21:24:04.424Z,3.60
2019-05-29T21:26:08.165Z,3.80
2019-05-29T21:28:11.870Z,4.12
2019-05-29T21:30:17.269Z,3.95
2019-05-29T21:32:21.010Z,3.40
2019-05-29T21:34:24.707Z,3.33
2019-05-29T21:36:28.582Z,3.72
2019-05-29T21:38:32.445Z,3.62
2019-05-29T21:40:36.338Z,3.27
2019-05-29T21:42:40.534Z,4.10
2019-05-29T21:44:44.883Z,3.47
2019-05-29T21:46:48.672Z,3.20
2019-05-29T21:48:52.485Z,3.45
2019-05-29T21:50:56.299Z,3.67
2019-05-29T21:53:00.021Z,3.60
2019-05-29T21:55:05.032Z,3.83
2019-05-29T21:57:08.785Z,3.75
2019-05-29T21:59:12.554Z,3.50
2019-05-29T22:01:16.357Z,3.02
2019-05-29T22:03:20.257Z,3.12
2019-05-29T22:05:24.094Z,3.27
2019-05-29T22:07:27.819Z,3.05
2019-05-29T22:09:31.522Z,3.27
2019-05-29T22:11:35.240Z,3.80
2019-05-29T22:13:39.069Z,3.42
2019-05-29T22:15:42.774Z,3.72
2019-05-29T22:17:46.629Z,3.87
2019-05-29T22:19:50.763Z,3.58
2019-05-29T22:21:55.006Z,3.58
2019-05-29T22:23:59.240Z,3.67
2019-05-29T22:26:03.056Z,3.60
2019-05-29T22:28:06.799Z,3.95
2019-05-29T22:30:12.308Z,4.05
2019-05-29T22:32:16.041Z,3.62
2019-05-29T22:34:19.853Z,3.90
2019-05-29T22:38:59.575Z,3.95
2019-05-29T22:41:03.442Z,3.75
2019-05-29T22:43:07.152Z,4.00
2019-05-29T22:45:11.106Z,4.45
2019-05-29T22:47:14.840Z,4.08
2019-05-29T22:49:18.615Z,4.37
2019-05-29T22:51:22.426Z,3.90
2019-05-29T22:53:26.124Z,3.75
2019-05-29T22:55:29.855Z,4.08
2019-05-29T22:57:33.655Z,4.30
2019-05-29T22:59:37.378Z,4.33
2019-05-29T23:01:41.115Z,4.33
2019-05-29T23:03:44.906Z,4.20
2019-05-29T23:05:48.678Z,4.40
2019-05-29T23:07:52.386Z,4.12
2019-05-29T23:09:56.168Z,4.80
2019-05-29T23:12:00.425Z,4.33
2019-05-29T23:14:04.390Z,4.60
2019-05-29T23:16:08.180Z,4.17
2019-05-29T23:18:11.909Z,4.17
2019-05-29T23:20:15.741Z,4.67
2019-05-29T23:22:19.460Z,4.42
2019-05-29T23:24:23.176Z,4.75
2019-05-29T23:26:26.946Z,4.50
2019-05-29T23:28:30.645Z,4.45
2019-05-29T23:30:34.360Z,4.67
2019-05-29T23:32:38.177Z,4.60
2019-05-29T23:34:42.042Z,5.10
2019-05-29T23:36:45.822Z,4.42
2019-05-29T23:38:49.535Z,4.35
2019-05-29T23:40:53.327Z,5.03
2019-05-29T23:42:57.356Z,4.92
2019-05-29T23:45:01.540Z,4.70
2019-05-29T23:47:05.349Z,4.55
2019-05-29T23:49:09.147Z,4.60
2019-05-29T23:51:12.844Z,4.70
2019-05-29T23:53:16.550Z,4.90
2019-05-29T23:55:20.277Z,4.90
2019-05-29T23:57:23.982Z,5.33
2019-05-29T23:59:27.719Z,4.90
